Time;durP1;ratioP1;P1;durP2;ratioP2;P2;SDS_P1;SDS_P2;PMS_P1;PMS_P2;Temp;Humidity;BMP_temperature;BMP_pressure;BME280_temperature;BME280_humidity;BME280_pressure;Samples;Min_cycle;Max_cycle;Signal;HPM_P1;HPM_P2
2022/04/04 00:01:42;;;;;;;7.13;2.88;;;;;;;1.93;100.00;101260.00;4960029;28;20078;-77
2022/04/04 00:04:08;;;;;;;5.68;2.22;;;;;;;1.96;100.00;101253.84;4952065;28;20035;-77
2022/04/04 00:06:33;;;;;;;11.40;2.80;;;;;;;1.91;100.00;101248.88;4962505;28;20515;-77
2022/04/04 00:08:59;;;;;;;4.80;2.35;;;;;;;1.96;100.00;101253.84;4927037;28;20049;-76
2022/04/04 00:11:24;;;;;;;14.52;2.78;;;;;;;1.89;100.00;101240.38;4961580;28;20058;-76
2022/04/04 00:13:50;;;;;;;9.45;2.50;;;;;;;1.97;100.00;101250.31;4946747;28;20035;-77
2022/04/04 00:16:15;;;;;;;5.35;2.50;;;;;;;1.98;100.00;101246.84;4953545;28;20042;-76
2022/04/04 00:18:41;;;;;;;6.50;2.38;;;;;;;1.97;100.00;101239.97;4966426;28;20057;-77
2022/04/04 00:21:06;;;;;;;5.68;3.20;;;;;;;2.01;100.00;101231.13;4964502;28;20047;-78
2022/04/04 00:23:32;;;;;;;8.30;2.58;;;;;;;1.90;100.00;101238.63;4955030;28;20038;-77
2022/04/04 00:25:58;;;;;;;6.75;2.90;;;;;;;1.88;100.00;101230.09;4950536;28;20511;-77
2022/04/04 00:28:24;;;;;;;9.43;2.75;;;;;;;1.90;100.00;101233.44;4937385;28;20108;-76
2022/04/04 00:30:49;;;;;;;10.10;3.35;;;;;;;1.91;100.00;101222.19;4963203;28;20107;-76
2022/04/04 00:33:15;;;;;;;6.68;3.00;;;;;;;1.74;100.00;101200.59;4946866;28;20129;-76
2022/04/04 00:35:41;;;;;;;7.15;2.80;;;;;;;1.85;100.00;101220.75;4950455;29;20039;-78
2022/04/04 00:38:08;;;;;;;9.73;2.92;;;;;;;1.69;100.00;101205.16;4953635;28;20089;-76
2022/04/04 00:40:34;;;;;;;10.15;3.38;;;;;;;1.87;100.00;101212.91;4975972;28;20035;-77
2022/04/04 00:43:00;;;;;;;8.10;3.63;;;;;;;1.78;100.00;101203.03;4962166;28;20034;-76
2022/04/04 00:45:26;;;;;;;6.50;3.00;;;;;;;1.83;100.00;101195.84;4945342;28;20448;-77
2022/04/04 00:47:54;;;;;;;8.98;3.10;;;;;;;1.79;100.00;101200.38;4963627;28;20046;-76
2022/04/04 00:50:19;;;;;;;8.13;3.38;;;;;;;1.79;100.00;101184.00;4949684;28;20101;-77
2022/04/04 00:52:45;;;;;;;8.23;3.45;;;;;;;1.77;100.00;101191.84;4961444;28;20051;-77
2022/04/04 00:55:11;;;;;;;6.35;3.05;;;;;;;1.74;100.00;101177.31;4952635;28;20042;-77
2022/04/04 00:57:38;;;;;;;5.60;3.42;;;;;;;1.79;100.00;101184.00;4941409;28;20483;-77
2022/04/04 01:00:11;;;;;;;8.20;3.33;;;;;;;1.80;100.00;101170.16;4952096;28;20071;-77
2022/04/04 01:02:38;;;;;;;6.40;3.10;;;;;;;1.80;100.00;101168.41;4937988;28;20050;-77
2022/04/04 01:05:04;;;;;;;10.35;3.30;;;;;;;1.72;100.00;101155.88;4960816;28;20054;-77
2022/04/04 01:07:31;;;;;;;7.70;3.40;;;;;;;1.72;100.00;101158.47;4969188;28;20046;-77
2022/04/04 01:09:56;;;;;;;7.15;3.58;;;;;;;1.71;100.00;101148.19;4967684;28;20038;-77
2022/04/04 01:12:22;;;;;;;9.60;3.45;;;;;;;1.71;100.00;101153.38;4960726;28;20102;-76
2022/04/04 01:14:48;;;;;;;10.82;3.25;;;;;;;1.70;100.00;101136.19;4964225;28;20039;-77
2022/04/04 01:17:16;;;;;;;8.23;3.47;;;;;;;1.74;100.00;101148.88;4952722;28;20062;-76
2022/04/04 01:19:42;;;;;;;7.25;3.40;;;;;;;1.71;100.00;101138.69;4951207;28;20047;-78
2022/04/04 01:22:10;;;;;;;7.47;3.72;;;;;;;1.76;100.00;101135.88;4948502;28;20035;-77
2022/04/04 01:24:38;;;;;;;9.52;3.70;;;;;;;1.74;100.00;101130.75;4972034;28;20400;-76
2022/04/04 01:27:05;;;;;;;8.43;3.70;;;;;;;1.60;100.00;101117.75;4965340;28;20039;-76
2022/04/04 01:29:31;;;;;;;5.95;3.90;;;;;;;1.72;100.00;101129.19;4948442;28;20046;-77
2022/04/04 01:31:57;;;;;;;7.13;3.58;;;;;;;1.69;100.00;101113.81;4954922;28;20045;-76
2022/04/04 01:34:23;;;;;;;8.48;4.35;;;;;;;1.64;100.00;101113.22;4952348;28;20042;-78
2022/04/04 01:36:49;;;;;;;7.82;4.07;;;;;;;1.60;100.00;101106.53;4962878;28;20039;-76
2022/04/04 01:39:15;;;;;;;8.07;4.28;;;;;;;1.68;100.00;101107.00;4971768;28;20108;-76
2022/04/04 01:41:42;;;;;;;9.38;4.32;;;;;;;1.70;100.00;101107.75;4956779;28;20473;-76
2022/04/04 01:44:08;;;;;;;9.05;3.90;;;;;;;1.63;100.00;101096.03;4953128;28;20047;-77
2022/04/04 01:46:34;;;;;;;7.80;4.15;;;;;;;1.62;100.00;101091.78;4936244;29;20096;-76
2022/04/04 01:49:02;;;;;;;7.53;3.95;;;;;;;1.64;100.00;101092.53;4965078;28;20121;-76
2022/04/04 01:51:29;;;;;;;5.80;3.90;;;;;;;1.61;100.00;101077.19;4966010;28;20512;-76
2022/04/04 01:53:55;;;;;;;12.38;4.20;;;;;;;1.61;100.00;101075.44;4980547;28;20082;-77
2022/04/04 01:56:22;;;;;;;9.52;3.95;;;;;;;1.59;100.00;101079.84;4972194;28;20038;-77
2022/04/04 01:58:48;;;;;;;8.35;4.32;;;;;;;1.61;100.00;101069.44;4983000;28;20038;-76
2022/04/04 02:01:23;;;;;;;10.93;4.40;;;;;;;1.60;100.00;101058.25;4969942;28;20030;-77
2022/04/04 02:03:58;;;;;;;7.18;4.00;;;;;;;1.60;100.00;101053.09;4958370;28;20069;-78
2022/04/04 02:06:24;;;;;;;9.05;4.40;;;;;;;1.50;100.00;101049.31;4965853;28;20053;-77
2022/04/04 02:08:50;;;;;;;6.18;4.40;;;;;;;1.57;100.00;101035.16;4967321;28;20076;-78
2022/04/04 02:11:19;;;;;;;10.90;4.35;;;;;;;1.60;100.00;101029.81;4962524;28;20488;-78
2022/04/04 02:13:45;;;;;;;7.20;4.07;;;;;;;1.60;100.00;101027.22;4977848;28;20093;-77
2022/04/04 02:16:12;;;;;;;6.93;4.28;;;;;;;1.53;100.00;101021.53;4959947;28;20038;-77
2022/04/04 02:18:38;;;;;;;7.38;4.57;;;;;;;1.59;100.00;101022.13;4964848;28;20096;-76
2022/04/04 02:21:05;;;;;;;9.18;4.10;;;;;;;1.49;100.00;101009.69;4960232;28;20551;-76
2022/04/04 02:23:32;;;;;;;10.10;4.53;;;;;;;1.50;100.00;101010.53;4936319;28;20408;-76
2022/04/04 02:25:58;;;;;;;8.25;4.57;;;;;;;1.49;100.00;101009.69;4937625;28;20045;-78
2022/04/04 02:28:25;;;;;;;10.48;5.10;;;;;;;1.40;100.00;101015.34;4979901;28;20137;-77
2022/04/04 02:30:52;;;;;;;9.13;4.78;;;;;;;1.30;100.00;100989.16;4979083;28;20035;-78
2022/04/04 02:33:20;;;;;;;7.50;4.32;;;;;;;1.40;100.00;100999.03;4970063;28;20713;-76
2022/04/04 02:35:50;;;;;;;8.43;4.50;;;;;;;1.40;100.00;101002.44;4953626;28;20658;-78
2022/04/04 02:38:16;;;;;;;9.48;4.70;;;;;;;1.32;100.00;100989.91;4966031;28;20042;-76
2022/04/04 02:40:42;;;;;;;9.75;4.57;;;;;;;1.32;100.00;100982.16;4971232;28;20093;-78
2022/04/04 02:43:09;;;;;;;11.88;4.68;;;;;;;1.36;100.00;100977.66;4980092;28;20125;-76
2022/04/04 02:45:35;;;;;;;10.70;4.68;;;;;;;1.33;100.00;100975.22;4968211;28;20054;-76
2022/04/04 02:48:02;;;;;;;7.82;4.55;;;;;;;1.33;100.00;100976.06;4960123;28;20046;-77
2022/04/04 02:50:28;;;;;;;9.18;4.30;;;;;;;1.31;100.00;100964.97;4935213;28;20034;-76
2022/04/04 02:52:54;;;;;;;8.35;4.50;;;;;;;1.31;100.00;100944.28;4946874;28;20115;-76
2022/04/04 02:58:06;;;;;;;8.25;4.63;;;;;;;1.42;100.00;100943.72;4960043;28;20038;-76
2022/04/04 03:00:32;;;;;;;7.10;4.32;;;;;;;1.45;100.00;100940.13;4957018;28;20054;-77
2022/04/04 03:02:58;;;;;;;6.70;4.70;;;;;;;1.48;100.00;100939.97;4959889;28;20039;-76
2022/04/04 03:05:24;;;;;;;8.05;4.55;;;;;;;1.51;100.00;100927.72;4944021;28;20046;-75
2022/04/04 03:07:51;;;;;;;7.10;4.30;;;;;;;1.44;100.00;100926.38;4952961;28;20101;-76
2022/04/04 03:10:17;;;;;;;9.23;4.40;;;;;;;1.46;100.00;100921.13;4937130;28;20215;-75
2022/04/04 03:12:45;;;;;;;7.30;4.10;;;;;;;1.36;100.00;100900.13;4971204;28;20039;-75
2022/04/04 03:15:14;;;;;;;8.75;3.95;;;;;;;1.47;100.00;100908.13;4969258;28;20077;-76
2022/04/04 03:17:44;;;;;;;6.53;4.18;;;;;;;1.53;100.00;100907.78;4969273;28;20596;-77
2022/04/04 03:20:15;;;;;;;6.97;3.92;;;;;;;1.48;100.00;100904.59;4936506;28;20064;-76
2022/04/04 03:22:47;;;;;;;8.93;3.97;;;;;;;1.48;100.00;100903.78;4964993;28;20034;-77
2022/04/04 03:25:14;;;;;;;5.38;3.88;;;;;;;1.51;100.00;100896.69;4966918;28;20111;-77
2022/04/04 03:27:42;;;;;;;8.63;3.95;;;;;;;1.53;100.00;100888.84;4933661;29;20481;-75
2022/04/04 03:30:10;;;;;;;6.68;3.67;;;;;;;1.50;100.00;100887.25;4954322;28;20045;-76
2022/04/04 03:32:36;;;;;;;5.63;4.03;;;;;;;1.63;100.00;100890.00;4961377;28;20039;-77
2022/04/04 03:35:04;;;;;;;5.78;3.70;;;;;;;1.63;100.00;100873.66;4954454;28;20035;-77
2022/04/04 03:37:34;;;;;;;7.25;4.07;;;;;;;1.63;100.00;100868.50;4961929;28;20046;-77
2022/04/04 03:40:02;;;;;;;10.00;3.92;;;;;;;1.62;100.00;100871.97;4949567;28;20070;-76
2022/04/04 03:42:28;;;;;;;7.70;4.03;;;;;;;1.60;100.00;100854.00;4948168;28;20042;-76
2022/04/04 03:44:53;;;;;;;11.65;4.15;;;;;;;1.60;100.00;100848.81;4968613;28;20035;-76
2022/04/04 03:47:19;;;;;;;7.07;3.80;;;;;;;1.64;100.00;100855.50;4970609;28;20104;-77
2022/04/04 03:49:45;;;;;;;5.88;3.97;;;;;;;1.62;100.00;100834.06;4953568;28;20054;-77
2022/04/04 03:52:11;;;;;;;6.55;4.07;;;;;;;1.74;100.00;100840.28;4956061;28;20436;-77
2022/04/04 03:54:37;;;;;;;7.38;4.13;;;;;;;1.76;100.00;100830.69;4965562;28;20452;-77
2022/04/04 03:57:03;;;;;;;8.20;4.10;;;;;;;1.75;100.00;100816.91;4960839;28;20035;-76
2022/04/04 03:59:29;;;;;;;7.30;3.65;;;;;;;1.82;100.00;100819.16;4953492;28;20500;-77
2022/04/04 04:01:55;;;;;;;10.60;4.20;;;;;;;1.79;100.00;100812.41;4968275;28;20037;-77
2022/04/04 04:04:20;;;;;;;7.13;3.97;;;;;;;1.82;100.00;100819.97;4969259;28;20690;-77
2022/04/04 04:06:46;;;;;;;10.88;3.83;;;;;;;1.72;100.00;100793.81;4965977;28;20046;-76
2022/04/04 04:09:13;;;;;;;5.80;3.30;;;;;;;1.85;100.00;100793.94;4941784;28;20047;-77
2022/04/04 04:11:38;;;;;;;6.45;3.58;;;;;;;1.85;100.00;100787.94;4950180;28;20054;-77
2022/04/04 04:14:04;;;;;;;7.10;4.00;;;;;;;1.79;100.00;100781.38;4979696;28;20034;-76
2022/04/04 04:16:30;;;;;;;6.35;3.80;;;;;;;1.87;100.00;100776.56;4935667;28;20043;-76
2022/04/04 04:18:56;;;;;;;7.53;4.13;;;;;;;1.92;100.00;100776.28;4962393;28;20057;-77
2022/04/04 04:21:23;;;;;;;6.05;3.47;;;;;;;1.92;100.00;100765.94;4965451;28;20057;-76
2022/04/04 04:23:48;;;;;;;4.35;3.33;;;;;;;1.93;100.00;100757.28;4948567;28;20073;-76
2022/04/04 04:26:15;;;;;;;4.88;3.42;;;;;;;1.84;100.00;100743.13;4951148;28;20816;-76
2022/04/04 04:28:42;;;;;;;4.80;3.63;;;;;;;1.92;100.00;100746.09;4963063;28;20122;-76
2022/04/04 04:31:08;;;;;;;5.60;3.63;;;;;;;1.92;100.00;100737.50;4961261;28;20874;-77
2022/04/04 04:33:33;;;;;;;9.68;4.57;;;;;;;1.87;100.00;100719.66;4980271;28;20039;-76
2022/04/04 04:36:00;;;;;;;5.78;3.40;;;;;;;1.93;100.00;100714.13;4949325;28;20050;-75
2022/04/04 04:38:27;;;;;;;6.30;3.75;;;;;;;2.00;100.00;100724.94;4961254;28;20053;-77
2022/04/04 04:40:53;;;;;;;8.27;3.92;;;;;;;1.95;100.00;100707.09;4953916;28;20118;-76
2022/04/04 04:43:19;;;;;;;8.40;3.92;;;;;;;2.04;100.00;100712.66;4948668;28;20035;-75
2022/04/04 04:45:45;;;;;;;6.93;3.90;;;;;;;2.02;100.00;100691.22;4948549;28;20473;-76
2022/04/04 04:48:11;;;;;;;7.60;4.47;;;;;;;2.01;100.00;100694.72;4951675;28;20081;-76
2022/04/04 04:50:37;;;;;;;10.57;5.00;;;;;;;2.03;100.00;100682.53;4948052;28;20425;-76
2022/04/04 04:53:03;;;;;;;7.60;4.07;;;;;;;2.03;100.00;100670.41;4969214;28;20031;-76
2022/04/04 04:55:30;;;;;;;8.80;4.25;;;;;;;1.96;100.00;100658.78;4961827;28;20042;-73
2022/04/04 04:57:57;;;;;;;8.23;4.40;;;;;;;2.06;100.00;100666.81;4949605;28;20497;-76
2022/04/04 05:00:27;;;;;;;7.30;4.57;;;;;;;2.05;100.00;100658.22;4961886;28;20039;-76
2022/04/04 05:05:38;;;;;;;9.77;5.15;;;;;;;2.05;100.00;100640.09;4977981;28;20150;-77
2022/04/04 05:08:05;;;;;;;8.00;4.82;;;;;;;2.06;100.00;100639.19;4952232;28;20037;-75
2022/04/04 05:10:31;;;;;;;10.85;5.20;;;;;;;2.06;100.00;100639.19;4951942;28;20034;-76
2022/04/04 05:12:56;;;;;;;10.30;5.20;;;;;;;2.10;100.00;100630.31;4948619;29;20043;-76
2022/04/04 05:15:23;;;;;;;8.25;5.47;;;;;;;2.12;100.00;100622.44;4956711;28;20038;-76
2022/04/04 05:17:51;;;;;;;8.40;5.47;;;;;;;2.17;100.00;100623.00;4943708;28;20043;-75
2022/04/04 05:20:19;;;;;;;8.45;5.68;;;;;;;2.08;100.00;100610.63;4945982;28;20031;-75
2022/04/04 05:22:45;;;;;;;8.88;5.78;;;;;;;2.15;100.00;100609.34;4939314;28;20074;-76
2022/04/04 05:25:12;;;;;;;10.52;5.90;;;;;;;2.21;100.00;100621.06;4964650;28;20038;-75
2022/04/04 05:27:38;;;;;;;8.27;6.00;;;;;;;2.18;100.00;100610.88;4936706;28;20392;-75
2022/04/04 05:30:05;;;;;;;8.65;5.97;;;;;;;2.19;100.00;100595.28;4960468;28;20039;-75
2022/04/04 05:32:31;;;;;;;9.38;6.50;;;;;;;2.23;100.00;100603.69;4948306;28;20042;-74
2022/04/04 05:34:56;;;;;;;11.18;7.03;;;;;;;2.28;100.00;100597.28;4937301;28;20031;-75
2022/04/04 05:37:22;;;;;;;10.25;7.35;;;;;;;2.30;100.00;100584.25;4967505;28;20042;-75
2022/04/04 05:39:47;;;;;;;12.55;7.40;;;;;;;2.31;100.00;100583.31;4935659;28;20047;-75
2022/04/04 05:42:13;;;;;;;13.52;8.20;;;;;;;2.36;100.00;100570.91;4965944;28;20098;-76
2022/04/04 05:44:39;;;;;;;11.15;7.93;;;;;;;2.31;100.00;100572.97;4954852;28;20037;-75
2022/04/04 05:47:05;;;;;;;15.25;8.52;;;;;;;2.40;100.00;100574.97;4967470;28;20097;-76
2022/04/04 05:49:30;;;;;;;15.20;8.05;;;;;;;2.41;100.00;100562.84;4981432;28;20477;-77
2022/04/04 05:51:56;;;;;;;11.77;8.73;;;;;;;2.38;100.00;100568.22;4972207;28;20050;-75
2022/04/04 05:54:24;;;;;;;13.45;9.00;;;;;;;2.38;100.00;100544.94;4948650;28;20066;-76
2022/04/04 05:56:50;;;;;;;13.70;8.77;;;;;;;2.41;100.00;100560.25;4966413;28;20039;-75
2022/04/04 05:59:15;;;;;;;12.82;8.75;;;;;;;2.45;100.00;100544.44;4965291;28;20480;-76
2022/04/04 06:01:41;;;;;;;13.57;8.80;;;;;;;2.50;100.00;100551.91;4944901;28;20039;-78
2022/04/04 06:04:07;;;;;;;14.50;9.57;;;;;;;2.53;100.00;100547.34;4966526;28;20049;-75
2022/04/04 06:06:32;;;;;;;17.20;10.13;;;;;;;2.52;100.00;100543.13;4936259;28;20069;-74
2022/04/04 06:08:59;;;;;;;15.75;9.55;;;;;;;2.58;100.00;100536.72;4935261;28;20042;-75
2022/04/04 06:11:24;;;;;;;11.40;9.73;;;;;;;2.53;100.00;100537.00;4948731;28;20035;-74
2022/04/04 06:13:50;;;;;;;15.48;10.32;;;;;;;2.57;100.00;100529.03;4935663;28;20039;-75
2022/04/04 06:16:15;;;;;;;14.93;9.85;;;;;;;2.52;100.00;100517.22;4950664;28;20031;-75
2022/04/04 06:18:42;;;;;;;17.70;10.68;;;;;;;2.49;100.00;100517.41;4962682;28;20109;-75
2022/04/04 06:21:08;;;;;;;23.73;11.40;;;;;;;2.38;100.00;100503.53;4951670;28;20043;-76
2022/04/04 06:23:34;;;;;;;19.83;11.90;;;;;;;2.42;100.00;100513.56;4979457;28;20476;-76
2022/04/04 06:26:01;;;;;;;14.45;12.05;;;;;;;2.33;100.00;100498.63;4943289;28;20039;-75
2022/04/04 06:28:29;;;;;;;16.55;12.45;;;;;;;2.28;100.00;100501.53;4969161;28;20090;-75
2022/04/04 06:30:55;;;;;;;18.48;12.63;;;;;;;2.24;100.00;100502.66;4939334;28;20134;-76
2022/04/04 06:33:21;;;;;;;18.38;13.27;;;;;;;2.22;100.00;100506.25;4951831;28;20121;-76
2022/04/04 06:35:51;;;;;;;19.50;13.80;;;;;;;2.20;100.00;100502.94;4958580;28;20050;-77
2022/04/04 06:38:20;;;;;;;19.90;14.35;;;;;;;2.17;100.00;100485.84;4959808;28;20102;-76
2022/04/04 06:40:51;;;;;;;19.25;14.30;;;;;;;2.12;100.00;100480.97;4978172;28;20047;-77
2022/04/04 06:43:18;;;;;;;23.77;15.70;;;;;;;2.17;100.00;100482.41;4961508;28;20093;-78
2022/04/04 06:45:44;;;;;;;20.60;14.75;;;;;;;2.06;100.00;100471.00;4970344;28;20037;-75
2022/04/04 06:48:11;;;;;;;25.40;15.77;;;;;;;1.92;100.00;100446.03;4959126;28;20117;-77
2022/04/04 06:50:37;;;;;;;21.95;16.55;;;;;;;2.13;100.00;100459.34;4957297;28;20082;-76
2022/04/04 06:53:03;;;;;;;22.75;16.48;;;;;;;2.12;100.00;100454.25;4952559;28;20526;-76
2022/04/04 06:55:31;;;;;;;23.50;16.75;;;;;;;2.05;100.00;100435.69;4975445;28;20054;-76
2022/04/04 06:57:56;;;;;;;22.95;16.95;;;;;;;2.05;100.00;100442.66;4962442;28;20035;-78
2022/04/04 07:00:23;;;;;;;22.90;17.25;;;;;;;2.08;100.00;100434.69;4960166;28;20381;-77
2022/04/04 07:02:49;;;;;;;23.85;17.40;;;;;;;2.04;100.00;100428.06;4955384;28;20106;-77
2022/04/04 07:05:15;;;;;;;22.85;16.73;;;;;;;2.03;100.00;100429.81;4960549;28;20377;-77
2022/04/04 07:07:41;;;;;;;24.50;17.83;;;;;;;1.97;100.00;100412.09;4948062;28;20037;-75
2022/04/04 07:10:07;;;;;;;23.45;18.35;;;;;;;2.01;100.00;100429.06;4935306;28;20469;-77
2022/04/04 07:12:38;;;;;;;23.75;17.23;;;;;;;1.97;100.00;100406.94;4962875;28;20039;-77
2022/04/04 07:15:04;;;;;;;23.42;17.27;;;;;;;1.97;100.00;100409.50;4964044;28;20460;-77
2022/04/04 07:17:30;;;;;;;24.65;18.00;;;;;;;1.99;100.00;100386.13;4955380;28;20039;-78
2022/04/04 07:19:56;;;;;;;26.67;17.60;;;;;;;1.99;100.00;100401.66;4972475;28;20066;-77
2022/04/04 07:22:21;;;;;;;28.73;18.38;;;;;;;1.97;100.00;100391.41;4941871;28;20065;-76
2022/04/04 07:24:47;;;;;;;25.48;18.10;;;;;;;2.03;100.00;100390.19;4983265;28;20041;-78
2022/04/04 07:27:13;;;;;;;24.10;18.33;;;;;;;2.00;100.00;100374.84;4957282;28;20039;-77
2022/04/04 07:29:38;;;;;;;23.70;17.63;;;;;;;2.00;100.00;100370.53;4959113;28;20103;-76
2022/04/04 07:32:05;;;;;;;24.75;18.45;;;;;;;1.97;100.00;100367.31;4942055;28;20034;-77
2022/04/04 07:34:30;;;;;;;26.08;18.63;;;;;;;2.02;100.00;100350.56;4965089;28;20500;-77
2022/04/04 07:36:56;;;;;;;27.00;17.90;;;;;;;1.86;100.00;100342.13;4950024;28;20121;-78
2022/04/04 07:39:22;;;;;;;22.00;17.55;;;;;;;1.92;100.00;100342.56;4957524;28;20129;-77
2022/04/04 07:41:48;;;;;;;26.88;18.65;;;;;;;1.99;100.00;100337.00;4959074;28;20568;-77
2022/04/04 07:44:14;;;;;;;25.33;18.00;;;;;;;1.99;100.00;100330.03;4938303;28;20050;-76
2022/04/04 07:46:39;;;;;;;22.75;17.50;;;;;;;1.96;100.00;100322.50;4971640;28;20035;-76
2022/04/04 07:49:05;;;;;;;24.23;19.20;;;;;;;2.04;100.00;100317.66;4969452;28;20082;-76
2022/04/04 07:51:31;;;;;;;25.27;18.88;;;;;;;1.94;100.00;100306.22;4980714;28;20041;-78
2022/04/04 07:53:57;;;;;;;23.88;18.52;;;;;;;1.92;100.00;100293.44;4973330;28;20047;-76
2022/04/04 07:56:23;;;;;;;27.90;19.52;;;;;;;1.94;100.00;100291.56;4955516;28;20393;-76
2022/04/04 07:58:48;;;;;;;27.95;21.00;;;;;;;1.98;100.00;100279.25;4958421;28;20039;-77
2022/04/04 08:01:14;;;;;;;25.25;20.60;;;;;;;2.03;100.00;100261.66;4942510;28;20034;-76
2022/04/04 08:03:40;;;;;;;25.33;19.10;;;;;;;1.94;100.00;100255.34;4982269;28;20101;-76
2022/04/04 08:06:05;;;;;;;22.83;18.92;;;;;;;2.02;100.00;100260.00;4946981;28;20079;-76
2022/04/04 08:08:31;;;;;;;23.90;19.88;;;;;;;2.05;100.00;100253.78;4961176;28;20042;-77
2022/04/04 08:10:57;;;;;;;25.95;20.52;;;;;;;2.06;100.00;100240.75;4979849;28;20043;-76
2022/04/04 08:13:24;;;;;;;28.35;20.35;;;;;;;2.09;100.00;100242.28;4962105;28;20050;-76
2022/04/04 08:15:51;;;;;;;24.30;20.17;;;;;;;2.11;100.00;100219.72;4947696;28;20042;-79
2022/04/04 08:18:16;;;;;;;26.80;19.67;;;;;;;2.05;100.00;100209.81;4935349;28;20042;-76
2022/04/04 08:20:43;;;;;;;25.73;18.98;;;;;;;1.99;100.00;100200.72;4953534;28;20030;-77
2022/04/04 08:23:09;;;;;;;25.40;19.33;;;;;;;1.95;100.00;100181.97;4937514;28;20126;-75
2022/04/04 08:25:35;;;;;;;22.65;19.52;;;;;;;2.06;100.00;100185.59;4975924;28;20151;-77
2022/04/04 08:28:00;;;;;;;21.30;17.98;;;;;;;2.06;100.00;100189.00;4972481;28;20097;-76
2022/04/04 08:30:26;;;;;;;22.05;18.25;;;;;;;2.04;100.00;100171.94;4954944;28;20047;-76
2022/04/04 08:32:53;;;;;;;23.42;19.13;;;;;;;2.07;100.00;100171.72;4931871;29;20046;-76
2022/04/04 08:35:18;;;;;;;24.23;18.75;;;;;;;2.11;100.00;100167.97;4952384;28;20130;-78
2022/04/04 08:37:46;;;;;;;23.45;17.63;;;;;;;2.08;100.00;100156.09;4959886;28;20094;-79
2022/04/04 08:40:14;;;;;;;22.58;18.17;;;;;;;2.15;100.00;100146.16;4957351;28;20042;-77
2022/04/04 08:42:41;;;;;;;25.08;19.55;;;;;;;2.20;100.00;100112.19;4972021;28;20480;-77
2022/04/04 08:45:09;;;;;;;24.27;17.70;;;;;;;2.18;100.00;100121.81;4931724;28;20046;-77
2022/04/04 08:47:36;;;;;;;20.33;16.58;;;;;;;2.12;100.00;100125.66;4930051;28;20047;-79
2022/04/04 08:50:02;;;;;;;22.25;17.35;;;;;;;2.11;100.00;100111.06;4963677;28;20023;-77
2022/04/04 08:52:29;;;;;;;21.13;16.55;;;;;;;2.15;100.00;100107.34;4954702;28;20035;-77
2022/04/04 08:54:55;;;;;;;21.17;16.13;;;;;;;2.14;100.00;100097.91;4978001;28;20044;-76
2022/04/04 08:57:20;;;;;;;23.95;17.13;;;;;;;2.14;100.00;100090.97;4946288;28;20039;-77
2022/04/04 08:59:46;;;;;;;21.10;15.57;;;;;;;2.16;100.00;100085.69;4970849;28;20185;-76
2022/04/04 09:02:13;;;;;;;20.80;16.17;;;;;;;2.13;100.00;100073.00;4941018;28;20035;-78
2022/04/04 09:04:40;;;;;;;20.60;15.40;;;;;;;2.09;100.00;100059.44;4975564;28;20129;-76
2022/04/04 09:07:10;;;;;;;21.40;15.57;;;;;;;2.19;100.00;100048.44;4967850;28;20034;-78
2022/04/04 09:09:50;;;;;;;20.10;15.40;;;;;;;2.20;100.00;100052.69;4955313;28;20111;-78
2022/04/04 09:12:26;;;;;;;19.58;15.02;;;;;;;2.28;100.00;100042.59;4972632;28;20038;-77
2022/04/04 09:14:56;;;;;;;19.05;14.13;;;;;;;2.29;100.00;100020.97;4964863;28;20041;-78
2022/04/04 09:17:27;;;;;;;19.35;14.43;;;;;;;2.39;100.00;100039.25;4971181;28;20043;-79
2022/04/04 09:19:53;;;;;;;17.77;13.88;;;;;;;2.37;100.00;100021.22;4934884;29;20055;-78
2022/04/04 09:22:21;;;;;;;15.52;12.57;;;;;;;2.47;100.00;100017.03;4953605;28;20053;-80
2022/04/04 09:24:57;;;;;;;16.45;12.63;;;;;;;2.42;100.00;100019.13;4956464;28;20051;-78
2022/04/04 09:27:27;;;;;;;17.65;12.98;;;;;;;2.42;100.00;100003.59;4954599;28;20043;-78
2022/04/04 09:29:57;;;;;;;16.85;13.07;;;;;;;2.33;100.00;99994.75;4967291;28;20121;-77
2022/04/04 09:32:38;;;;;;;17.67;13.52;;;;;;;2.40;100.00;99992.53;4933968;28;20051;-77
2022/04/04 09:35:09;;;;;;;18.83;12.55;;;;;;;2.47;100.00;99980.81;4947613;28;20098;-79
2022/04/04 09:37:36;;;;;;;14.88;12.45;;;;;;;2.48;100.00;99960.91;4971699;28;20045;-78
2022/04/04 09:40:14;;;;;;;17.73;12.65;;;;;;;2.53;100.00;99969.16;4966063;28;20088;-78
2022/04/04 09:42:41;;;;;;;18.30;11.85;;;;;;;2.51;100.00;99978.81;4944293;28;21492;-78
2022/04/04 09:45:09;;;;;;;14.45;12.57;;;;;;;2.50;100.00;99959.03;4952732;28;20468;-77
2022/04/04 09:47:58;;;;;;;19.20;13.32;;;;;;;2.51;100.00;99951.16;4964386;28;20042;-79
2022/04/04 09:50:28;;;;;;;13.55;12.05;;;;;;;2.50;100.00;99946.91;4965959;28;20179;-78
2022/04/04 09:52:53;;;;;;;13.55;11.30;;;;;;;2.51;100.00;99934.81;4969230;28;20050;-75
2022/04/04 09:55:37;;;;;;;17.05;11.82;;;;;;;2.50;100.00;99933.16;4940419;28;20046;-79
2022/04/04 09:58:06;;;;;;;16.27;11.90;;;;;;;2.44;100.00;99918.91;4969742;28;20035;-78
2022/04/04 10:00:36;;;;;;;16.98;12.95;;;;;;;2.36;100.00;99908.28;4950443;28;20033;-77
2022/04/04 10:03:04;;;;;;;17.35;13.30;;;;;;;2.44;100.00;99924.06;4950656;28;20727;-76
2022/04/04 10:05:31;;;;;;;17.38;13.32;;;;;;;2.39;100.00;99912.41;4958815;28;20413;-79
2022/04/04 10:07:57;;;;;;;16.58;13.30;;;;;;;2.43;100.00;99913.81;4968864;28;20045;-79
2022/04/04 10:10:26;;;;;;;18.77;13.80;;;;;;;2.39;100.00;99896.88;4966638;28;20046;-76
2022/04/04 10:12:52;;;;;;;19.75;13.38;;;;;;;2.42;100.00;99899.25;4955503;28;20043;-75
2022/04/04 10:15:20;;;;;;;19.13;13.63;;;;;;;2.27;100.00;99862.41;4965651;28;20047;-77
2022/04/04 10:17:46;;;;;;;16.25;13.07;;;;;;;2.33;100.00;99880.88;4960128;28;20035;-76
2022/04/04 10:20:12;;;;;;;18.55;12.80;;;;;;;2.34;100.00;99868.78;4958322;28;20039;-76
2022/04/04 10:22:38;;;;;;;16.17;13.23;;;;;;;2.38;100.00;99870.19;4969922;28;20039;-77
2022/04/04 10:25:07;;;;;;;17.58;13.10;;;;;;;2.20;100.00;99859.44;4952832;28;20408;-76
2022/04/04 10:27:35;;;;;;;19.38;12.73;;;;;;;2.28;100.00;99857.13;4957260;28;20047;-76
2022/04/04 10:30:07;;;;;;;16.58;12.93;;;;;;;2.26;100.00;99853.81;4961758;28;20039;-76
2022/04/04 10:32:33;;;;;;;18.67;13.93;;;;;;;2.22;100.00;99857.53;4966157;28;20635;-78
2022/04/04 10:35:10;;;;;;;15.32;13.20;;;;;;;2.24;100.00;99852.25;4957908;28;20062;-77
2022/04/04 10:37:43;;;;;;;19.02;13.90;;;;;;;2.21;100.00;99826.63;4950465;28;20081;-77
2022/04/04 10:40:20;;;;;;;18.35;14.85;;;;;;;2.31;100.00;99828.41;4969926;28;20043;-77
2022/04/04 10:42:46;;;;;;;17.00;13.95;;;;;;;2.27;100.00;99821.00;4964564;28;20046;-77
2022/04/04 10:45:15;;;;;;;17.48;12.90;;;;;;;2.28;100.00;99813.13;4945428;28;20074;-76
2022/04/04 10:47:43;;;;;;;16.50;13.57;;;;;;;2.30;100.00;99811.25;4981377;28;20049;-76
2022/04/04 10:50:21;;;;;;;18.45;14.20;;;;;;;2.33;100.00;99815.34;4968068;28;20050;-76
2022/04/04 10:52:48;;;;;;;17.33;13.82;;;;;;;2.30;100.00;99806.06;4924276;29;20486;-76
2022/04/04 10:55:40;;;;;;;18.92;15.05;;;;;;;2.38;100.00;99808.06;4978365;28;20050;-77
2022/04/04 10:58:23;;;;;;;20.70;14.95;;;;;;;2.37;100.00;99809.00;4972917;28;20042;-77
2022/04/04 11:00:55;;;;;;;18.25;13.80;;;;;;;2.40;100.00;99793.25;4958463;28;20039;-78
2022/04/04 11:03:34;;;;;;;16.80;13.77;;;;;;;2.45;100.00;99788.53;4960538;28;20045;-78
2022/04/04 11:09:08;;;;;;;17.25;14.23;;;;;;;2.52;100.00;99775.94;4947350;28;20042;-77
2022/04/04 11:11:50;;;;;;;16.30;12.90;;;;;;;2.55;100.00;99770.53;4947450;28;20130;-77
2022/04/04 11:14:27;;;;;;;17.83;13.02;;;;;;;2.60;100.00;99780.53;4949503;28;20129;-76
2022/04/04 11:17:05;;;;;;;18.25;14.93;;;;;;;2.65;100.00;99773.22;4962245;28;20038;-77
2022/04/04 11:20:00;;;;;;;16.52;14.13;;;;;;;2.64;100.00;99763.84;4972175;28;20517;-77
2022/04/04 11:22:28;;;;;;;16.92;14.48;;;;;;;2.63;100.00;99734.50;4983305;28;20047;-77
2022/04/04 11:24:58;;;;;;;18.63;14.00;;;;;;;2.69;100.00;99733.19;4971452;28;20461;-79
2022/04/04 11:27:27;;;;;;;15.98;12.65;;;;;;;2.75;100.00;99740.50;4960601;28;20516;-76
2022/04/04 11:29:55;;;;;;;15.85;13.20;;;;;;;2.80;100.00;99729.78;4939682;29;20134;-77